Time;durP1;ratioP1;P1;durP2;ratioP2;P2;SDS_P1;SDS_P2;PMS_P1;PMS_P2;Temp;Humidity;BMP_temperature;BMP_pressure;BME280_temperature;BME280_humidity;BME280_pressure;Samples;Min_cycle;Max_cycle;Signal;HPM_P1;HPM_P2
2021/10/08 00:02:06;;;;;;;4.82;2.25;;;19.10;99.90;;;;;;5075353;28;20079;-50
2021/10/08 00:04:52;;;;;;;4.18;1.45;;;19.10;99.90;;;;;;5079168;28;20059;-49
2021/10/08 00:07:19;;;;;;;3.92;2.13;;;19.20;99.90;;;;;;5076557;28;20044;-49
2021/10/08 00:09:47;;;;;;;2.00;1.25;;;19.20;99.90;;;;;;5076595;28;20478;-45
2021/10/08 00:12:16;;;;;;;4.82;2.38;;;19.20;99.90;;;;;;5077071;28;20048;-45
2021/10/08 00:14:44;;;;;;;1.58;1.00;;;19.20;99.90;;;;;;5076474;28;20044;-46
2021/10/08 00:17:11;;;;;;;5.45;1.80;;;19.20;99.90;;;;;;5059563;28;20143;-45
2021/10/08 00:19:39;;;;;;;1.58;1.17;;;19.20;99.90;;;;;;5076190;28;20115;-45
2021/10/08 00:22:06;;;;;;;5.78;1.23;;;19.20;99.90;;;;;;5076153;28;20048;-45
2021/10/08 00:24:34;;;;;;;3.85;1.10;;;19.10;99.90;;;;;;5114089;28;20039;-45
2021/10/08 00:27:02;;;;;;;2.58;1.60;;;19.10;99.90;;;;;;5114131;28;20088;-45
2021/10/08 00:29:29;;;;;;;5.68;1.55;;;19.00;99.90;;;;;;5114188;28;20440;-45
2021/10/08 00:31:57;;;;;;;3.05;1.52;;;19.00;99.90;;;;;;5097488;28;20124;-45
2021/10/08 00:34:25;;;;;;;2.33;1.27;;;19.00;99.90;;;;;;5097199;28;20043;-45
2021/10/08 00:36:53;;;;;;;3.05;1.60;;;18.90;99.90;;;;;;5097103;28;20042;-45
2021/10/08 00:39:21;;;;;;;3.60;1.27;;;18.80;99.90;;;;;;5096989;28;20047;-45
2021/10/08 00:41:49;;;;;;;3.83;1.38;;;18.80;99.90;;;;;;5114980;27;20059;-45
2021/10/08 00:44:16;;;;;;;3.25;1.38;;;18.70;99.90;;;;;;5114819;28;20425;-50
2021/10/08 00:46:45;;;;;;;4.38;1.85;;;18.70;99.90;;;;;;5097600;28;20044;-48
2021/10/08 00:49:12;;;;;;;4.10;1.88;;;18.70;99.90;;;;;;5097017;28;20054;-45
2021/10/08 00:51:40;;;;;;;4.53;1.48;;;18.70;99.90;;;;;;5096806;28;20039;-47
2021/10/08 00:54:07;;;;;;;3.22;1.58;;;18.80;99.90;;;;;;5096689;28;20043;-48
2021/10/08 00:56:36;;;;;;;2.17;1.27;;;18.80;99.90;;;;;;5113562;28;20048;-46
2021/10/08 00:59:04;;;;;;;3.22;1.58;;;18.80;99.90;;;;;;5113803;28;20457;-49
2021/10/08 01:01:31;;;;;;;5.25;1.52;;;18.80;99.90;;;;;;5113800;28;20035;-46
2021/10/08 01:03:59;;;;;;;3.30;1.80;;;18.80;99.90;;;;;;5114837;28;20079;-48
2021/10/08 01:06:26;;;;;;;5.55;1.73;;;18.80;99.90;;;;;;5114552;28;20524;-46
2021/10/08 01:08:54;;;;;;;3.75;1.40;;;18.80;99.90;;;;;;5113847;28;20135;-47
2021/10/08 01:11:22;;;;;;;3.50;1.45;;;18.80;99.90;;;;;;5096271;28;20059;-45
2021/10/08 01:13:53;;;;;;;4.78;1.30;;;18.90;99.90;;;;;;5079921;28;20071;-49
2021/10/08 01:16:23;;;;;;;4.45;1.83;;;18.90;99.90;;;;;;5096399;28;20474;-46
2021/10/08 01:18:53;;;;;;;4.75;2.85;;;19.00;99.90;;;;;;5096003;28;20047;-47
2021/10/08 01:21:21;;;;;;;6.40;1.90;;;19.00;99.90;;;;;;5113314;28;20516;-45
2021/10/08 01:23:49;;;;;;;4.53;1.58;;;19.00;99.90;;;;;;5113219;28;20096;-45
2021/10/08 01:26:17;;;;;;;3.65;1.50;;;19.00;99.90;;;;;;5096384;28;20040;-46
2021/10/08 01:28:45;;;;;;;1.92;1.10;;;19.00;99.90;;;;;;5096172;28;20054;-45
2021/10/08 01:31:18;;;;;;;3.78;1.73;;;18.90;99.90;;;;;;5112751;28;20481;-47
2021/10/08 01:33:57;;;;;;;3.08;1.27;;;18.90;99.90;;;;;;5112913;28;20382;-46
2021/10/08 01:36:29;;;;;;;3.10;1.42;;;18.80;99.90;;;;;;5112810;28;20062;-48
2021/10/08 01:39:02;;;;;;;2.65;1.33;;;18.70;99.90;;;;;;5097078;28;20035;-45
2021/10/08 01:41:34;;;;;;;3.75;1.80;;;18.70;99.90;;;;;;5113078;28;20044;-45
2021/10/08 01:44:03;;;;;;;2.70;1.48;;;18.70;99.90;;;;;;5096295;28;20031;-45
2021/10/08 01:46:31;;;;;;;3.85;1.30;;;18.70;99.90;;;;;;5095717;28;20048;-45
2021/10/08 01:49:00;;;;;;;3.75;1.67;;;18.70;99.90;;;;;;5095761;28;20405;-45
2021/10/08 01:51:31;;;;;;;3.60;1.40;;;18.60;99.90;;;;;;5096395;28;20050;-45
2021/10/08 01:53:59;;;;;;;2.67;1.50;;;18.70;99.90;;;;;;5112980;28;20401;-52
2021/10/08 01:56:27;;;;;;;4.40;1.58;;;18.70;99.90;;;;;;5095933;28;20046;-51
2021/10/08 01:59:01;;;;;;;2.83;1.52;;;18.70;99.90;;;;;;5095877;28;20043;-49
2021/10/08 02:01:32;;;;;;;5.70;1.50;;;18.70;99.90;;;;;;5079551;28;20607;-49
2021/10/08 02:04:04;;;;;;;5.40;1.33;;;18.70;99.90;;;;;;5112721;28;20052;-47
2021/10/08 02:06:33;;;;;;;4.40;1.70;;;18.50;99.90;;;;;;5112785;28;20389;-50
2021/10/08 02:09:04;;;;;;;5.18;1.85;;;18.40;99.90;;;;;;5096045;28;20056;-49
2021/10/08 02:11:34;;;;;;;7.38;1.80;;;18.40;99.90;;;;;;5095689;28;20042;-51
2021/10/08 02:14:03;;;;;;;2.00;1.20;;;18.20;99.90;;;;;;5112590;28;20046;-45
2021/10/08 02:16:31;;;;;;;2.10;1.20;;;18.10;99.90;;;;;;5095762;28;20047;-45
2021/10/08 02:19:06;;;;;;;2.83;1.50;;;18.10;99.90;;;;;;5079848;28;20063;-47
2021/10/08 02:21:39;;;;;;;3.05;1.70;;;18.20;99.90;;;;;;5112836;28;20043;-46
2021/10/08 02:24:09;;;;;;;3.50;1.40;;;18.30;99.90;;;;;;5096290;28;20063;-45
2021/10/08 02:26:42;;;;;;;4.25;1.52;;;18.30;99.90;;;;;;5115573;28;20047;-46
2021/10/08 02:29:18;;;;;;;3.63;1.70;;;18.40;99.90;;;;;;5101112;28;20036;-45
2021/10/08 02:31:46;;;;;;;4.22;1.85;;;18.40;99.90;;;;;;5082909;28;20093;-45
2021/10/08 02:34:14;;;;;;;3.33;1.77;;;18.40;99.90;;;;;;5116475;28;20047;-50
2021/10/08 02:36:42;;;;;;;3.85;1.70;;;18.40;99.90;;;;;;5116569;28;20131;-47
2021/10/08 02:39:10;;;;;;;2.45;1.30;;;18.40;99.90;;;;;;5099360;28;20079;-46
2021/10/08 02:41:37;;;;;;;2.17;1.27;;;18.40;99.90;;;;;;5099479;28;20069;-46
2021/10/08 02:44:06;;;;;;;2.25;1.40;;;18.30;99.90;;;;;;5116324;28;20130;-46
2021/10/08 02:46:38;;;;;;;2.42;1.55;;;18.30;99.90;;;;;;5116376;28;20036;-45
2021/10/08 02:49:06;;;;;;;4.78;1.50;;;18.30;99.90;;;;;;5099371;28;20483;-45
2021/10/08 02:51:35;;;;;;;4.30;1.67;;;18.30;99.90;;;;;;5099410;28;20488;-45
2021/10/08 02:54:03;;;;;;;2.92;1.83;;;18.30;99.90;;;;;;5098889;28;20044;-46
2021/10/08 02:56:31;;;;;;;4.25;1.92;;;18.30;99.90;;;;;;5082406;28;20528;-46
2021/10/08 02:58:59;;;;;;;4.43;1.70;;;18.30;99.90;;;;;;5115901;28;20039;-47
2021/10/08 03:01:26;;;;;;;4.30;1.90;;;18.30;99.90;;;;;;5099287;28;20054;-45
2021/10/08 03:03:55;;;;;;;3.78;1.52;;;18.30;99.90;;;;;;5117193;28;20040;-45
2021/10/08 03:06:22;;;;;;;4.10;1.85;;;18.30;99.90;;;;;;5098953;28;20047;-48
2021/10/08 03:08:53;;;;;;;4.80;2.33;;;18.30;99.90;;;;;;5082206;28;20134;-45
2021/10/08 03:11:24;;;;;;;3.47;1.70;;;18.30;99.90;;;;;;5099182;28;20420;-49
2021/10/08 03:13:51;;;;;;;2.63;1.80;;;18.30;99.90;;;;;;5098822;28;20048;-49
2021/10/08 03:16:19;;;;;;;3.85;2.10;;;18.30;99.90;;;;;;5098713;28;20404;-46
2021/10/08 03:18:47;;;;;;;3.65;1.55;;;18.30;99.90;;;;;;5098432;28;20117;-49
2021/10/08 03:21:15;;;;;;;2.92;1.50;;;18.30;99.90;;;;;;5115547;28;20455;-50
2021/10/08 03:23:42;;;;;;;2.70;1.60;;;18.30;99.90;;;;;;5098932;28;20057;-45
2021/10/08 03:26:10;;;;;;;4.03;2.40;;;18.30;99.90;;;;;;5115709;28;20040;-45
2021/10/08 03:28:38;;;;;;;4.25;1.38;;;18.30;99.90;;;;;;5116863;28;20054;-46
2021/10/08 03:31:06;;;;;;;5.60;1.60;;;18.30;99.90;;;;;;5115524;28;20035;-45
2021/10/08 03:33:36;;;;;;;2.70;1.65;;;18.30;99.90;;;;;;5115631;28;20060;-49
2021/10/08 03:36:06;;;;;;;1.58;1.10;;;18.40;99.90;;;;;;5098320;28;20515;-50
2021/10/08 03:38:35;;;;;;;4.35;1.63;;;18.40;99.90;;;;;;5115898;28;20100;-46
2021/10/08 03:43:30;;;;;;;2.20;1.17;;;18.30;99.90;;;;;;5116406;28;20130;-47
2021/10/08 03:46:05;;;;;;;3.20;1.58;;;18.40;99.90;;;;;;5081444;28;20130;-45
2021/10/08 03:48:49;;;;;;;4.43;1.63;;;18.40;99.90;;;;;;5116732;28;20757;-46
2021/10/08 03:51:16;;;;;;;2.95;1.40;;;18.30;99.90;;;;;;5115217;28;20361;-45
2021/10/08 03:53:44;;;;;;;2.42;1.20;;;18.40;99.90;;;;;;5114919;28;20058;-45
2021/10/08 03:56:11;;;;;;;5.20;1.60;;;18.40;99.90;;;;;;5115013;28;20049;-45
2021/10/08 03:58:39;;;;;;;3.65;1.75;;;18.40;99.90;;;;;;5114742;28;20465;-45
2021/10/08 04:01:07;;;;;;;4.63;2.20;;;18.30;99.90;;;;;;5114765;28;20040;-46
2021/10/08 04:03:36;;;;;;;2.42;1.80;;;18.10;99.90;;;;;;5114884;28;20039;-45
2021/10/08 04:06:05;;;;;;;4.55;2.03;;;18.10;99.90;;;;;;5097661;28;20083;-47
2021/10/08 04:08:32;;;;;;;5.20;2.42;;;18.20;99.90;;;;;;5097914;28;20039;-45
2021/10/08 04:11:00;;;;;;;3.10;1.63;;;18.10;99.90;;;;;;5097876;28;20516;-45
2021/10/08 04:13:28;;;;;;;2.80;1.83;;;18.10;99.90;;;;;;5097708;28;20055;-45
2021/10/08 04:15:57;;;;;;;3.17;1.98;;;18.10;99.90;;;;;;5114499;28;20039;-51
2021/10/08 04:18:24;;;;;;;3.83;2.10;;;18.10;99.90;;;;;;5097556;28;20048;-50
2021/10/08 04:20:53;;;;;;;4.07;1.95;;;18.20;99.90;;;;;;5097864;28;20048;-50
2021/10/08 04:23:22;;;;;;;2.95;1.73;;;18.20;99.90;;;;;;5097604;28;20505;-46
2021/10/08 04:25:50;;;;;;;4.22;2.60;;;18.20;99.90;;;;;;5097133;28;20051;-45
2021/10/08 04:28:18;;;;;;;6.45;2.33;;;18.20;99.90;;;;;;5114123;28;20044;-51
2021/10/08 04:30:45;;;;;;;2.95;1.77;;;18.30;99.90;;;;;;5114244;28;20097;-46
2021/10/08 04:33:19;;;;;;;3.83;1.90;;;18.30;99.90;;;;;;5114196;28;20035;-47
2021/10/08 04:35:59;;;;;;;4.63;2.72;;;18.30;99.90;;;;;;5097229;28;20521;-46
2021/10/08 04:38:32;;;;;;;4.30;1.77;;;18.30;99.90;;;;;;5080829;28;20063;-46
2021/10/08 04:41:05;;;;;;;5.90;1.88;;;18.20;99.90;;;;;;5097068;28;20048;-47
2021/10/08 04:43:33;;;;;;;4.43;1.75;;;18.20;99.90;;;;;;5114036;28;20052;-46
2021/10/08 04:46:02;;;;;;;3.72;1.92;;;18.20;99.90;;;;;;5096760;28;20040;-48
2021/10/08 04:48:30;;;;;;;5.70;2.00;;;18.20;99.90;;;;;;5096671;28;20385;-45
2021/10/08 04:50:58;;;;;;;3.42;1.80;;;18.20;99.90;;;;;;5097258;28;20075;-48
2021/10/08 04:53:27;;;;;;;4.35;2.47;;;18.20;99.90;;;;;;5079919;28;20071;-46
2021/10/08 04:55:56;;;;;;;5.55;2.47;;;18.20;99.90;;;;;;5113593;28;20043;-46
2021/10/08 04:58:25;;;;;;;5.10;2.75;;;18.20;99.90;;;;;;5096792;28;20066;-45
2021/10/08 05:00:57;;;;;;;4.00;2.00;;;18.20;99.90;;;;;;5080646;28;20134;-46
2021/10/08 05:03:25;;;;;;;8.07;2.97;;;18.20;99.90;;;;;;5096550;28;20039;-45
2021/10/08 05:05:53;;;;;;;3.17;1.75;;;18.30;99.90;;;;;;5096497;28;20043;-45
2021/10/08 05:08:27;;;;;;;3.85;2.15;;;18.30;99.90;;;;;;5113496;28;20043;-45
2021/10/08 05:10:55;;;;;;;2.60;1.52;;;18.30;99.90;;;;;;5113776;28;20039;-45
2021/10/08 05:13:26;;;;;;;5.63;2.75;;;18.30;99.90;;;;;;5096489;28;20040;-46
2021/10/08 05:15:54;;;;;;;3.22;2.22;;;18.30;99.90;;;;;;5096678;28;20062;-45
2021/10/08 05:18:23;;;;;;;4.50;2.08;;;18.30;99.90;;;;;;5096204;28;20043;-47
2021/10/08 05:20:51;;;;;;;7.88;2.40;;;18.30;99.90;;;;;;5113150;28;20543;-45
2021/10/08 05:23:20;;;;;;;5.50;2.20;;;18.40;99.90;;;;;;5079460;28;20108;-45
2021/10/08 05:25:47;;;;;;;6.03;2.17;;;18.40;99.90;;;;;;5096258;28;20169;-49
2021/10/08 05:28:16;;;;;;;4.03;1.98;;;18.40;99.90;;;;;;5096418;28;20044;-50
2021/10/08 05:30:44;;;;;;;5.97;2.28;;;18.40;99.90;;;;;;5113172;28;20036;-47
2021/10/08 05:33:15;;;;;;;6.22;2.63;;;18.40;99.90;;;;;;5079585;28;20587;-47
2021/10/08 05:35:43;;;;;;;5.05;2.38;;;18.40;99.90;;;;;;5113149;28;20436;-46
2021/10/08 05:38:11;;;;;;;7.65;2.75;;;18.40;99.90;;;;;;5113011;28;20082;-47
2021/10/08 05:40:39;;;;;;;4.65;2.10;;;18.40;99.90;;;;;;5113073;28;20080;-46
2021/10/08 05:43:07;;;;;;;5.38;2.25;;;18.40;99.90;;;;;;5095934;28;20075;-46
2021/10/08 05:45:40;;;;;;;3.53;2.10;;;18.30;99.90;;;;;;5095704;28;20047;-51
2021/10/08 05:48:08;;;;;;;3.65;2.28;;;18.30;99.90;;;;;;5095944;28;20044;-47
2021/10/08 05:50:36;;;;;;;6.03;1.92;;;18.30;99.90;;;;;;5095741;28;20055;-49
2021/10/08 05:53:08;;;;;;;6.75;2.47;;;18.30;99.90;;;;;;5095601;28;20039;-46
2021/10/08 05:55:38;;;;;;;5.95;2.67;;;18.30;99.90;;;;;;5112868;28;20043;-48
2021/10/08 05:58:06;;;;;;;4.03;1.90;;;18.30;99.90;;;;;;5095695;28;20494;-46
2021/10/08 06:00:37;;;;;;;4.20;2.33;;;18.40;99.90;;;;;;5097494;28;20399;-46
2021/10/08 06:03:06;;;;;;;4.90;2.38;;;18.40;99.90;;;;;;5083724;28;20044;-45
2021/10/08 06:05:36;;;;;;;5.25;2.10;;;18.40;99.90;;;;;;5116866;28;20036;-46
2021/10/08 06:08:05;;;;;;;3.80;2.15;;;18.40;99.90;;;;;;5116927;28;20051;-46
2021/10/08 06:10:39;;;;;;;5.45;2.20;;;18.40;99.90;;;;;;5117023;28;20043;-45
2021/10/08 06:13:08;;;;;;;3.88;1.48;;;18.50;99.90;;;;;;5099713;28;20070;-46
2021/10/08 06:15:36;;;;;;;5.00;1.80;;;18.50;99.90;;;;;;5118285;28;20040;-45
2021/10/08 06:18:05;;;;;;;4.90;2.22;;;18.60;99.90;;;;;;5100266;28;20113;-47
2021/10/08 06:20:33;;;;;;;4.25;1.95;;;18.60;99.90;;;;;;5099790;28;20051;-45
2021/10/08 06:23:03;;;;;;;4.10;2.05;;;18.60;99.90;;;;;;5116787;28;20044;-45
2021/10/08 06:25:31;;;;;;;3.55;2.40;;;18.60;99.90;;;;;;5099552;28;20367;-45
2021/10/08 06:28:03;;;;;;;5.82;2.10;;;18.70;99.90;;;;;;5116525;28;20503;-45
2021/10/08 06:30:32;;;;;;;2.58;1.70;;;18.70;99.90;;;;;;5099438;28;20077;-46
2021/10/08 06:33:00;;;;;;;3.17;1.77;;;18.80;99.90;;;;;;5082332;28;20066;-45
2021/10/08 06:35:28;;;;;;;9.52;2.75;;;18.80;99.90;;;;;;5099585;28;20130;-44
2021/10/08 06:37:57;;;;;;;5.60;2.25;;;18.90;99.90;;;;;;5099708;28;20362;-48
2021/10/08 06:40:26;;;;;;;3.85;2.15;;;18.90;99.90;;;;;;5082332;28;20138;-51
2021/10/08 06:42:56;;;;;;;5.47;2.22;;;19.00;99.90;;;;;;5099560;28;20489;-46
2021/10/08 06:45:50;;;;;;;4.95;2.30;;;19.10;99.90;;;;;;5113639;28;20059;-45
2021/10/08 06:48:19;;;;;;;10.07;2.92;;;19.20;99.90;;;;;;5115934;28;20523;-48
2021/10/08 06:50:48;;;;;;;6.97;3.65;;;19.20;99.90;;;;;;5098873;28;20501;-45
2021/10/08 06:53:17;;;;;;;4.28;2.10;;;19.30;99.90;;;;;;5099309;28;20114;-45
2021/10/08 06:55:47;;;;;;;5.32;2.33;;;19.20;99.90;;;;;;5099508;28;20043;-44
2021/10/08 06:58:22;;;;;;;10.10;3.53;;;19.20;99.90;;;;;;5116112;28;20084;-46
2021/10/08 07:00:53;;;;;;;4.68;2.13;;;19.20;99.90;;;;;;5098813;28;20562;-45
2021/10/08 07:03:22;;;;;;;6.00;2.72;;;19.10;99.90;;;;;;5099133;28;20049;-47
2021/10/08 07:05:50;;;;;;;8.02;2.45;;;18.70;99.90;;;;;;5082186;28;20078;-44
2021/10/08 07:08:18;;;;;;;10.88;3.10;;;18.60;99.90;;;;;;5115901;28;20035;-44
2021/10/08 07:10:46;;;;;;;6.57;2.97;;;18.50;99.90;;;;;;5098551;28;20047;-45
2021/10/08 07:13:14;;;;;;;9.40;3.42;;;18.40;99.90;;;;;;5098801;28;20481;-47
2021/10/08 07:15:41;;;;;;;7.57;3.35;;;18.40;99.90;;;;;;5115645;28;20498;-47
2021/10/08 07:18:14;;;;;;;8.32;3.28;;;18.60;99.90;;;;;;5115613;28;20055;-46
2021/10/08 07:20:45;;;;;;;10.48;2.85;;;18.70;99.90;;;;;;5115202;28;20075;-45
2021/10/08 07:23:12;;;;;;;6.93;3.60;;;19.10;99.90;;;;;;5115507;28;20035;-45
2021/10/08 07:25:40;;;;;;;6.65;2.30;;;19.10;99.90;;;;;;5098509;28;20043;-45
2021/10/08 07:28:08;;;;;;;5.70;2.70;;;19.20;99.90;;;;;;5098688;28;20069;-45
2021/10/08 07:30:35;;;;;;;4.75;2.05;;;19.40;99.90;;;;;;5115581;28;20064;-44
2021/10/08 07:33:03;;;;;;;5.88;1.45;;;19.70;99.90;;;;;;5115617;28;20138;-45
2021/10/08 07:35:30;;;;;;;4.05;1.60;;;19.70;99.90;;;;;;5115224;28;20112;-45
2021/10/08 07:37:58;;;;;;;4.05;1.95;;;19.70;99.90;;;;;;5116663;28;20044;-45
2021/10/08 07:40:26;;;;;;;4.93;1.85;;;19.90;99.90;;;;;;5116333;28;20048;-45
2021/10/08 07:42:53;;;;;;;4.40;1.52;;;19.90;99.90;;;;;;5115127;28;20042;-45
2021/10/08 07:45:21;;;;;;;4.50;1.55;;;20.00;99.90;;;;;;5115126;28;20047;-45
2021/10/08 07:47:49;;;;;;;6.70;3.05;;;20.20;99.90;;;;;;5115043;28;20088;-50
2021/10/08 07:50:16;;;;;;;3.10;1.42;;;20.20;99.90;;;;;;5115061;28;20143;-46
2021/10/08 07:52:44;;;;;;;6.70;2.85;;;20.10;99.90;;;;;;5114902;28;20406;-47
2021/10/08 07:55:12;;;;;;;9.07;2.85;;;20.00;99.90;;;;;;5098103;28;20047;-48
2021/10/08 07:57:40;;;;;;;13.18;3.58;;;19.90;99.90;;;;;;5114923;28;20047;-47
2021/10/08 08:00:11;;;;;;;4.80;2.88;;;19.60;99.90;;;;;;5098109;28;20063;-46
2021/10/08 08:02:40;;;;;;;7.60;2.42;;;19.60;99.90;;;;;;5116311;28;20502;-47
2021/10/08 08:05:09;;;;;;;6.72;1.63;;;19.40;99.90;;;;;;5114563;28;20046;-45
2021/10/08 08:07:37;;;;;;;5.05;1.90;;;19.30;99.90;;;;;;5114493;28;20081;-46
2021/10/08 08:10:08;;;;;;;8.52;2.53;;;19.40;99.90;;;;;;5097955;28;20075;-46
2021/10/08 08:12:36;;;;;;;4.93;2.10;;;19.80;99.90;;;;;;5116058;28;20430;-45
2021/10/08 08:15:05;;;;;;;3.78;2.00;;;20.10;99.90;;;;;;5114597;28;20071;-46
2021/10/08 08:17:34;;;;;;;6.78;2.22;;;20.50;99.90;;;;;;5114695;28;20043;-46
2021/10/08 08:20:04;;;;;;;8.07;2.15;;;20.80;99.90;;;;;;5096729;28;20422;-46
2021/10/08 08:22:32;;;;;;;4.10;1.90;;;21.10;99.90;;;;;;5115066;28;20047;-47
2021/10/08 08:25:00;;;;;;;4.35;1.52;;;21.30;99.90;;;;;;5113850;28;20048;-45
2021/10/08 08:27:27;;;;;;;4.40;2.17;;;21.40;99.90;;;;;;5114149;28;20071;-45
2021/10/08 08:29:55;;;;;;;4.50;2.17;;;21.50;99.90;;;;;;5114123;28;20378;-45
2021/10/08 08:32:24;;;;;;;4.40;1.92;;;21.20;99.90;;;;;;5114078;28;20083;-45
2021/10/08 08:34:51;;;;;;;4.95;2.30;;;20.90;99.90;;;;;;5080485;28;20047;-46
2021/10/08 08:37:19;;;;;;;7.20;3.03;;;20.60;99.90;;;;;;5115640;28;20045;-45
2021/10/08 08:39:48;;;;;;;6.90;2.05;;;20.40;99.90;;;;;;5115354;28;20440;-45
2021/10/08 08:42:20;;;;;;;12.80;2.92;;;20.30;99.90;;;;;;5113529;28;20052;-45
2021/10/08 08:44:49;;;;;;;9.93;3.67;;;20.10;99.90;;;;;;5113082;28;20197;-44
2021/10/08 08:47:19;;;;;;;8.45;2.42;;;19.90;99.90;;;;;;5112916;28;20040;-45
2021/10/08 08:49:48;;;;;;;8.13;2.67;;;19.80;99.90;;;;;;5113236;28;20074;-46
2021/10/08 08:52:16;;;;;;;6.03;2.08;;;19.70;99.90;;;;;;5114052;28;20406;-45
2021/10/08 08:54:45;;;;;;;4.95;2.00;;;19.60;99.90;;;;;;5112925;28;20430;-45
2021/10/08 08:57:20;;;;;;;5.10;3.25;;;19.70;99.90;;;;;;5096263;28;20040;-45
2021/10/08 09:00:08;;;;;;;5.38;2.00;;;19.70;99.90;;;;;;5113926;28;20055;-45
2021/10/08 09:02:37;;;;;;;9.20;3.03;;;19.70;99.90;;;;;;5112703;28;20398;-48
2021/10/08 09:05:05;;;;;;;11.70;2.28;;;19.70;99.90;;;;;;5112652;28;20079;-48
2021/10/08 09:07:45;;;;;;;7.05;2.72;;;19.60;99.90;;;;;;5078770;28;20134;-49
2021/10/08 09:15:49;;;;;;;3.63;1.58;;;19.50;99.90;;;;;;5113896;28;20107;-48
2021/10/08 09:24:35;;;;;;;5.60;1.55;;;19.00;99.90;;;;;;5044430;28;20529;-45
2021/10/08 09:30:51;;;;;;;2.15;0.80;;;18.20;99.90;;;;;;5015432;28;20041;-46
2021/10/08 09:33:23;;;;;;;4.18;1.40;;;18.10;99.90;;;;;;5050485;28;20458;-46
2021/10/08 09:36:12;;;;;;;1.58;1.20;;;18.20;99.90;;;;;;5003374;28;20045;-45
2021/10/08 09:38:45;;;;;;;2.05;1.02;;;18.30;99.90;;;;;;5001506;28;20499;-45
2021/10/08 09:41:13;;;;;;;3.35;1.25;;;18.20;99.90;;;;;;5017468;28;20495;-46
2021/10/08 09:43:45;;;;;;;1.27;0.90;;;18.10;99.90;;;;;;5099858;28;20039;-45
2021/10/08 09:46:21;;;;;;;1.23;1.08;;;18.00;99.90;;;;;;5095009;28;20047;-44
2021/10/08 09:48:48;;;;;;;3.53;1.30;;;17.90;99.90;;;;;;5113210;28;20039;-46
2021/10/08 09:51:21;;;;;;;5.63;1.90;;;17.90;99.90;;;;;;5113050;28;20281;-45
2021/10/08 09:53:48;;;;;;;4.20;2.22;;;17.80;99.90;;;;;;5111720;28;20409;-45
2021/10/08 09:56:31;;;;;;;4.45;1.83;;;17.70;99.90;;;;;;5111375;28;20537;-45
2021/10/08 09:59:00;;;;;;;3.08;1.10;;;17.90;99.90;;;;;;5094835;28;20047;-45
2021/10/08 10:01:32;;;;;;;3.30;1.45;;;18.00;99.90;;;;;;5111659;28;20044;-46
2021/10/08 10:04:01;;;;;;;5.57;1.92;;;18.10;99.90;;;;;;5098281;28;20146;-45
2021/10/08 10:06:29;;;;;;;3.75;1.50;;;18.30;99.90;;;;;;5098594;28;20443;-45
2021/10/08 10:08:57;;;;;;;3.80;1.50;;;18.30;99.90;;;;;;5093211;28;20040;-46
2021/10/08 10:11:26;;;;;;;4.53;1.48;;;18.30;99.90;;;;;;5090735;28;20044;-52
2021/10/08 10:13:57;;;;;;;3.92;1.50;;;18.40;99.90;;;;;;5093335;28;20044;-54
2021/10/08 10:16:33;;;;;;;6.35;1.55;;;18.40;99.90;;;;;;5099222;28;20048;-48
2021/10/08 10:19:03;;;;;;;3.75;1.48;;;18.50;99.90;;;;;;5077041;28;20389;-45
2021/10/08 10:21:33;;;;;;;2.45;1.48;;;18.60;99.90;;;;;;5086787;28;20677;-48
2021/10/08 10:24:03;;;;;;;4.15;1.63;;;18.70;99.90;;;;;;5104535;28;20093;-49
2021/10/08 10:26:33;;;;;;;3.08;1.20;;;18.80;99.90;;;;;;5109672;28;20092;-50
2021/10/08 10:29:03;;;;;;;2.35;1.77;;;18.90;99.90;;;;;;5091473;28;20067;-47
2021/10/08 10:31:35;;;;;;;4.45;1.35;;;19.00;99.90;;;;;;5111227;28;20048;-46
2021/10/08 10:34:04;;;;;;;4.30;1.25;;;19.10;99.90;;;;;;5095122;28;20047;-47
2021/10/08 10:36:38;;;;;;;3.72;1.70;;;19.30;99.90;;;;;;5109750;28;20043;-46
2021/10/08 10:39:12;;;;;;;3.45;1.35;;;19.40;99.90;;;;;;5077813;28;20067;-46
2021/10/08 10:41:41;;;;;;;2.65;1.77;;;19.40;99.90;;;;;;5089192;28;20039;-45
2021/10/08 10:44:27;;;;;;;1.98;1.48;;;19.30;99.90;;;;;;5086858;28;20046;-46
2021/10/08 10:47:34;;;;;;;2.95;1.30;;;19.40;99.90;;;;;;5110609;28;20044;-45
2021/10/08 10:50:16;;;;;;;4.68;2.50;;;19.40;99.90;;;;;;5099082;28;20441;-47
2021/10/08 10:52:56;;;;;;;2.60;1.20;;;19.50;99.90;;;;;;5110869;28;20059;-47
2021/10/08 10:55:24;;;;;;;3.20;1.30;;;19.50;99.90;;;;;;5102686;28;20039;-45
2021/10/08 10:57:56;;;;;;;3.40;1.35;;;19.40;99.90;;;;;;5094023;28;20059;-45
2021/10/08 11:00:26;;;;;;;3.88;1.75;;;19.50;99.90;;;;;;5112837;28;20377;-45
2021/10/08 11:03:18;;;;;;;4.07;1.27;;;19.30;99.90;;;;;;5082430;28;20557;-45
2021/10/08 11:06:04;;;;;;;3.38;1.48;;;19.00;99.90;;;;;;5090422;28;20048;-45
2021/10/08 11:08:33;;;;;;;3.97;1.50;;;18.80;99.90;;;;;;5099786;28;20511;-45
2021/10/08 11:11:01;;;;;;;5.68;1.75;;;18.80;99.90;;;;;;5113880;28;20047;-45
2021/10/08 11:13:38;;;;;;;2.38;1.08;;;18.90;99.90;;;;;;5094388;28;20048;-46
2021/10/08 11:16:14;;;;;;;1.60;0.60;;;19.00;99.90;;;;;;5071845;28;20043;-45
2021/10/08 11:18:42;;;;;;;0.60;0.55;;;19.10;99.90;;;;;;5103793;28;20448;-62
2021/10/08 11:21:34;;;;;;;0.98;0.60;;;19.40;99.90;;;;;;5113549;28;20130;-46
2021/10/08 11:24:24;;;;;;;1.23;0.90;;;19.60;99.90;;;;;;5086149;28;20270;-50
2021/10/08 11:27:00;;;;;;;1.52;0.93;;;19.90;99.90;;;;;;5100448;28;20048;-50
2021/10/08 11:29:34;;;;;;;2.38;0.70;;;20.00;99.90;;;;;;5108790;28;20176;-46
2021/10/08 11:32:14;;;;;;;2.67;0.80;;;20.00;99.90;;;;;;5114168;28;20044;-48
2021/10/08 11:34:56;;;;;;;1.42;0.80;;;19.80;99.90;;;;;;5083633;28;20521;-47
2021/10/08 11:37:28;;;;;;;3.03;0.82;;;19.80;99.90;;;;;;5092775;28;20044;-46
2021/10/08 11:39:56;;;;;;;2.28;1.30;;;19.60;99.90;;;;;;5105083;28;20044;-46
2021/10/08 11:42:26;;;;;;;2.90;1.50;;;19.50;99.90;;;;;;5076251;28;20402;-46
2021/10/08 11:45:03;;;;;;;2.60;1.00;;;19.60;99.90;;;;;;5085834;28;20055;-45
2021/10/08 11:47:44;;;;;;;3.58;1.33;;;19.50;99.90;;;;;;5083083;28;20052;-45
2021/10/08 11:52:57;;;;;;;3.22;1.40;;;19.20;99.90;;;;;;5109015;28;20120;-46
2021/10/08 11:55:27;;;;;;;2.47;1.48;;;19.20;99.90;;;;;;5081634;28;20052;-45
2021/10/08 11:58:04;;;;;;;6.65;3.15;;;19.10;99.90;;;;;;5084037;28;20072;-45
2021/10/08 12:00:44;;;;;;;4.47;2.40;;;19.00;99.90;;;;;;5092108;28;20048;-49
2021/10/08 12:03:13;;;;;;;5.13;2.22;;;19.00;99.90;;;;;;5107798;28;20097;-46
2021/10/08 12:05:43;;;;;;;5.20;1.75;;;18.90;99.90;;;;;;5106793;28;20443;-56
2021/10/08 12:08:15;;;;;;;5.13;2.78;;;18.80;99.90;;;;;;5101153;28;20093;-45
2021/10/08 12:10:55;;;;;;;7.38;3.13;;;18.70;99.90;;;;;;5074888;28;20428;-46
2021/10/08 12:13:39;;;;;;;4.13;2.05;;;18.40;99.90;;;;;;5088976;28;20062;-49
2021/10/08 12:16:08;;;;;;;4.25;1.90;;;18.30;99.90;;;;;;5065365;28;20040;-45
2021/10/08 12:18:44;;;;;;;6.90;2.25;;;18.20;99.90;;;;;;5099254;28;20501;-45
2021/10/08 12:21:15;;;;;;;8.32;2.83;;;18.20;99.90;;;;;;5100240;28;20040;-46
2021/10/08 12:24:03;;;;;;;4.05;2.67;;;18.10;99.90;;;;;;5079305;28;20090;-49
2021/10/08 12:26:36;;;;;;;3.38;1.98;;;18.00;99.90;;;;;;5103076;28;20035;-45
2021/10/08 12:29:11;;;;;;;4.35;2.53;;;18.00;99.90;;;;;;5097670;28;20048;-45
2021/10/08 12:31:58;;;;;;;9.45;3.05;;;18.00;99.90;;;;;;5077877;28;20043;-53
2021/10/08 12:34:57;;;;;;;4.30;1.90;;;18.00;99.90;;;;;;5074262;28;20510;-51
2021/10/08 12:38:29;;;;;;;6.32;2.17;;;18.00;99.90;;;;;;5110965;28;20048;-50
2021/10/08 12:44:25;;;;;;;4.75;2.55;;;18.20;99.90;;;;;;5100325;28;20055;-45
2021/10/08 12:47:13;;;;;;;6.68;2.60;;;18.30;99.90;;;;;;5111145;28;20135;-45
2021/10/08 12:49:50;;;;;;;3.72;1.73;;;18.40;99.90;;;;;;5093276;28;20044;-47
2021/10/08 12:52:36;;;;;;;2.53;1.20;;;18.50;99.90;;;;;;5091520;28;20035;-48
2021/10/08 12:55:10;;;;;;;6.00;1.37;;;18.60;99.90;;;;;;5086308;28;20134;-45
2021/10/08 12:58:10;;;;;;;3.00;1.48;;;18.60;99.90;;;;;;5057464;28;20040;-48
2021/10/08 13:00:47;;;;;;;1.52;0.82;;;18.70;99.90;;;;;;5112069;28;20074;-47
2021/10/08 13:03:42;;;;;;;2.92;1.25;;;18.80;99.90;;;;;;5110564;28;20043;-46
2021/10/08 13:06:17;;;;;;;2.45;0.90;;;18.80;99.90;;;;;;5098559;28;20044;-45
2021/10/08 13:09:12;;;;;;;1.15;0.70;;;19.00;99.90;;;;;;5094928;28;20421;-45
2021/10/08 13:11:46;;;;;;;1.23;0.70;;;19.10;99.90;;;;;;5107701;28;20039;-47
2021/10/08 13:14:28;;;;;;;1.15;0.80;;;19.30;99.90;;;;;;5097032;28;20047;-45
2021/10/08 13:16:56;;;;;;;1.73;0.90;;;19.40;99.90;;;;;;5111969;27;20039;-45
2021/10/08 13:19:29;;;;;;;2.25;0.80;;;19.60;99.90;;;;;;5101264;28;20071;-45
2021/10/08 13:21:58;;;;;;;2.13;0.85;;;19.80;99.90;;;;;;5095826;28;20557;-45
2021/10/08 13:24:27;;;;;;;1.13;0.90;;;19.90;99.90;;;;;;5104588;28;20413;-46
2021/10/08 13:26:58;;;;;;;3.35;0.98;;;20.00;99.90;;;;;;5081089;28;20525;-45
2021/10/08 13:29:26;;;;;;;1.73;0.85;;;20.00;99.90;;;;;;5100906;28;20044;-44
2021/10/08 13:31:54;;;;;;;0.73;0.60;;;20.00;99.90;;;;;;5087547;28;20036;-46